createdAt,value
2022-08-11T00:01:20.219Z,8.18
2022-08-11T00:03:53.912Z,7.95
2022-08-11T00:06:35.831Z,7.97
2022-08-11T00:09:10.823Z,8.73
2022-08-11T00:11:44.906Z,7.63
2022-08-11T00:14:37.146Z,8.05
2022-08-11T00:17:13.496Z,7.88
2022-08-11T00:20:14.208Z,7.20
2022-08-11T00:22:39.116Z,7.03
2022-08-11T00:25:17.761Z,7.22
2022-08-11T00:27:45.280Z,8.23
2022-08-11T00:30:13.702Z,7.80
2022-08-11T00:32:44.184Z,7.18
2022-08-11T00:35:56.047Z,7.18
2022-08-11T00:38:06.731Z,7.32
2022-08-11T00:40:45.455Z,7.00
2022-08-11T00:43:20.032Z,6.97
2022-08-11T00:46:15.341Z,6.97
2022-08-11T00:48:45.272Z,6.72
2022-08-11T00:52:02.278Z,7.18
2022-08-11T00:54:41.771Z,6.90
2022-08-11T00:57:37.097Z,7.28
2022-08-11T01:00:06.182Z,7.35
2022-08-11T01:03:18.387Z,7.25
2022-08-11T01:05:51.635Z,7.35
2022-08-11T01:08:18.649Z,7.80
2022-08-11T01:11:09.907Z,7.25
2022-08-11T01:13:57.752Z,6.40
2022-08-11T01:16:33.210Z,7.53
2022-08-11T01:19:18.954Z,7.20
2022-08-11T01:22:04.725Z,7.95
2022-08-11T01:25:09.678Z,7.20
2022-08-11T01:28:01.227Z,7.15
2022-08-11T01:30:57.256Z,7.72
2022-08-11T01:34:15.886Z,7.05
2022-08-11T01:36:56.886Z,7.40
2022-08-11T01:39:45.175Z,7.35
2022-08-11T01:43:01.153Z,7.60
2022-08-11T01:46:06.242Z,7.55
2022-08-11T01:48:41.707Z,8.23
2022-08-11T01:51:34.712Z,8.70
2022-08-11T01:54:05.091Z,8.65
2022-08-11T01:56:43.982Z,7.35
2022-08-11T01:59:16.703Z,8.35
2022-08-11T02:04:34.964Z,7.85
2022-08-11T02:07:15.513Z,8.23
2022-08-11T02:10:35.193Z,8.63
2022-08-11T02:13:35.583Z,8.77
2022-08-11T02:16:38.621Z,8.10
2022-08-11T02:19:37.567Z,9.45
2022-08-11T02:22:32.332Z,9.50
2022-08-11T02:25:19.978Z,8.38
2022-08-11T02:28:29.147Z,9.35
2022-08-11T02:32:25.046Z,9.40
2022-08-11T02:34:44.429Z,10.80
2022-08-11T02:37:32.350Z,10.70
2022-08-11T02:39:59.308Z,10.95
2022-08-11T02:42:44.900Z,10.80
2022-08-11T02:45:17.939Z,11.52
2022-08-11T02:48:41.725Z,12.25
2022-08-11T02:54:26.568Z,9.70
2022-08-11T02:56:59.307Z,9.70
2022-08-11T03:02:27.950Z,9.05
2022-08-11T03:05:14.241Z,9.30
2022-08-11T03:07:59.546Z,9.52
2022-08-11T03:11:11.462Z,9.13
2022-08-11T03:14:07.657Z,9.20
2022-08-11T03:16:46.906Z,8.32
2022-08-11T03:19:43.176Z,7.90
2022-08-11T03:22:30.315Z,7.15
2022-08-11T03:25:20.896Z,7.28
2022-08-11T03:28:17.660Z,7.13
2022-08-11T03:30:51.807Z,6.40
2022-08-11T03:33:48.443Z,6.28
2022-08-11T03:36:27.576Z,6.22
2022-08-11T03:39:13.411Z,5.85
2022-08-11T03:42:16.683Z,6.07
2022-08-11T03:45:14.965Z,5.78
2022-08-11T03:47:54.924Z,5.55
2022-08-11T03:50:41.333Z,5.68
2022-08-11T03:53:14.442Z,5.60
2022-08-11T03:56:02.931Z,6.68
2022-08-11T03:59:02.331Z,6.30
2022-08-11T04:01:50.641Z,7.13
2022-08-11T04:04:20.466Z,7.20
2022-08-11T04:07:39.822Z,6.43
2022-08-11T04:10:25.573Z,6.85
2022-08-11T04:12:58.312Z,6.82
2022-08-11T04:18:33.663Z,5.75
2022-08-11T04:21:39.385Z,5.88
2022-08-11T04:24:39.714Z,4.93
2022-08-11T04:27:25.409Z,5.60
2022-08-11T04:30:05.476Z,6.15
2022-08-11T04:32:35.939Z,5.55
2022-08-11T04:35:24.218Z,5.47
2022-08-11T04:38:09.220Z,5.57
2022-08-11T04:41:14.494Z,5.35
2022-08-11T04:44:18.300Z,5.53
2022-08-11T04:48:01.393Z,5.22
2022-08-11T04:51:16.866Z,4.97
2022-08-11T04:54:15.230Z,5.22
2022-08-11T04:57:03.239Z,4.90
2022-08-11T05:00:29.184Z,4.97
2022-08-11T05:03:14.084Z,5.50
2022-08-11T05:06:13.288Z,5.55
2022-08-11T05:09:10.524Z,4.93
2022-08-11T05:12:01.831Z,5.18
2022-08-11T05:15:11.667Z,5.75
2022-08-11T05:18:02.864Z,5.28
2022-08-11T05:20:58.736Z,4.60
2022-08-11T05:23:46.306Z,4.75
2022-08-11T05:26:46.697Z,4.78
2022-08-11T05:29:54.110Z,4.72
2022-08-11T05:32:41.958Z,6.35
2022-08-11T05:35:09.748Z,6.03
2022-08-11T05:38:05.874Z,4.40
2022-08-11T05:40:53.203Z,4.55
2022-08-11T05:44:20.994Z,4.68
2022-08-11T05:47:01.206Z,5.30
2022-08-11T05:49:50.130Z,5.82
2022-08-11T05:52:44.238Z,5.40
2022-08-11T05:55:34.367Z,4.95
2022-08-11T05:58:04.586Z,6.15
2022-08-11T06:00:32.359Z,5.55
2022-08-11T06:03:04.125Z,6.22
2022-08-11T06:05:38.177Z,5.40
2022-08-11T06:08:12.655Z,6.32
2022-08-11T06:10:44.917Z,6.03
2022-08-11T06:13:17.565Z,6.78
2022-08-11T06:15:47.651Z,6.20
2022-08-11T06:18:15.383Z,6.05
2022-08-11T06:20:51.046Z,5.72
2022-08-11T06:23:23.193Z,6.03
2022-08-11T06:25:56.292Z,5.28
2022-08-11T06:28:35.023Z,5.78
2022-08-11T06:31:12.745Z,6.30
2022-08-11T06:33:48.423Z,5.65
2022-08-11T06:36:34.940Z,6.70
2022-08-11T06:39:27.692Z,6.60
2022-08-11T06:44:58.416Z,8.43
2022-08-11T06:47:26.383Z,8.85
2022-08-11T06:50:18.071Z,8.75
2022-08-11T06:52:47.765Z,8.45
2022-08-11T06:55:55.665Z,8.30
2022-08-11T06:58:49.654Z,8.10
2022-08-11T07:01:47.803Z,7.13
2022-08-11T07:04:40.146Z,8.15
2022-08-11T07:08:33.102Z,7.22
2022-08-11T07:11:16.809Z,9.13
2022-08-11T07:14:02.798Z,9.95
2022-08-11T07:16:34.862Z,8.65
2022-08-11T07:19:27.773Z,9.30
2022-08-11T07:22:15.789Z,9.32
2022-08-11T07:25:19.716Z,9.85
2022-08-11T07:28:29.963Z,8.45
2022-08-11T07:31:03.507Z,9.57
2022-08-11T07:34:06.872Z,8.93
2022-08-11T07:36:45.798Z,10.65
2022-08-11T07:39:39.412Z,10.88
2022-08-11T07:42:09.813Z,9.63
2022-08-11T07:45:00.637Z,8.50
2022-08-11T07:47:47.171Z,10.25
2022-08-11T07:50:33.915Z,8.65
2022-08-11T07:53:02.819Z,8.70
2022-08-11T07:55:51.335Z,7.85
2022-08-11T07:58:45.734Z,8.43
2022-08-11T08:01:42.363Z,8.80
2022-08-11T08:04:32.004Z,8.93
2022-08-11T08:07:19.572Z,7.70
2022-08-11T08:10:07.276Z,7.40
2022-08-11T08:12:53.348Z,8.10
2022-08-11T08:15:40.442Z,6.20
2022-08-11T08:18:25.935Z,5.55
2022-08-11T08:20:56.840Z,5.85
2022-08-11T08:23:33.752Z,5.25
2022-08-11T08:26:04.906Z,5.05
2022-08-11T08:28:33.996Z,6.30
2022-08-11T08:31:01.258Z,5.60
2022-08-11T08:33:31.299Z,5.15
2022-08-11T08:36:14.836Z,4.72
2022-08-11T08:38:47.305Z,3.70
2022-08-11T08:41:18.785Z,3.97
2022-08-11T08:43:51.060Z,3.75
2022-08-11T08:46:22.350Z,4.18
2022-08-11T08:48:53.153Z,4.55
2022-08-11T08:51:54.858Z,4.20
2022-08-11T08:54:34.258Z,5.25
2022-08-11T08:57:05.493Z,5.82
2022-08-11T08:59:47.549Z,4.05
2022-08-11T09:02:22.050Z,3.80
2022-08-11T09:05:04.441Z,3.58
2022-08-11T09:07:38.705Z,3.17
2022-08-11T09:10:08.901Z,4.10
2022-08-11T09:12:39.194Z,3.50
2022-08-11T09:15:10.394Z,3.40
2022-08-11T09:17:47.755Z,4.10
2022-08-11T09:20:22.568Z,3.55
2022-08-11T09:24:07.037Z,3.55
2022-08-11T09:26:17.857Z,3.15
2022-08-11T09:28:46.481Z,3.58
2022-08-11T09:31:14.816Z,3.33
2022-08-11T09:33:43.909Z,3.17
2022-08-11T09:36:32.068Z,3.33
2022-08-11T09:39:21.759Z,3.25
2022-08-11T09:42:01.814Z,3.60
2022-08-11T09:44:49.496Z,3.33
2022-08-11T09:47:27.328Z,4.13
2022-08-11T09:50:01.180Z,4.03
2022-08-11T09:52:32.394Z,3.50
2022-08-11T09:55:00.036Z,3.67
2022-08-11T09:57:45.963Z,3.13
2022-08-11T10:00:15.251Z,3.60
2022-08-11T10:02:46.371Z,3.10
2022-08-11T10:05:35.932Z,4.40
2022-08-11T10:08:04.350Z,3.90
2022-08-11T10:10:36.379Z,3.33
2022-08-11T10:15:59.887Z,3.20
2022-08-11T10:18:49.701Z,2.90
2022-08-11T10:21:28.392Z,2.50
2022-08-11T10:24:17.474Z,2.30
2022-08-11T10:26:55.069Z,2.60
2022-08-11T10:29:54.758Z,2.22
2022-08-11T10:32:58.807Z,2.25
2022-08-11T10:35:28.374Z,2.00
2022-08-11T10:38:06.034Z,2.08
2022-08-11T10:40:36.029Z,1.52
2022-08-11T10:43:05.606Z,1.77
2022-08-11T10:45:58.901Z,2.15
2022-08-11T10:48:28.787Z,1.67
2022-08-11T10:51:14.681Z,2.00
2022-08-11T10:54:12.587Z,1.70
2022-08-11T10:56:59.486Z,1.50
2022-08-11T10:59:30.421Z,1.88
2022-08-11T11:01:59.170Z,1.88
2022-08-11T11:04:50.919Z,1.42
2022-08-11T11:07:24.215Z,1.58
2022-08-11T11:09:57.445Z,1.70
2022-08-11T11:12:51.966Z,1.50
2022-08-11T11:15:40.520Z,1.90
2022-08-11T11:18:11.435Z,1.70
2022-08-11T11:20:53.743Z,1.70
2022-08-11T11:26:27.110Z,1.42
2022-08-11T11:29:31.816Z,1.83
2022-08-11T11:32:04.755Z,1.40
2022-08-11T11:34:59.598Z,1.40
2022-08-11T11:37:29.674Z,1.45
2022-08-11T11:39:57.882Z,1.42
2022-08-11T11:42:25.604Z,1.80
2022-08-11T11:44:55.825Z,1.42
2022-08-11T11:47:24.018Z,1.40
2022-08-11T11:49:51.428Z,1.65
2022-08-11T11:52:21.968Z,1.20
2022-08-11T11:54:52.157Z,1.08
2022-08-11T11:57:39.939Z,1.40
2022-08-11T12:00:33.468Z,1.00
2022-08-11T12:03:05.452Z,1.85
2022-08-11T12:05:34.786Z,1.20
2022-08-11T12:08:15.447Z,1.10
2022-08-11T12:11:15.672Z,1.10
2022-08-11T12:13:46.057Z,1.08
2022-08-11T12:16:34.221Z,1.17
2022-08-11T12:19:05.522Z,1.00
2022-08-11T12:21:34.519Z,1.20
2022-08-11T12:24:21.865Z,1.40
2022-08-11T12:27:14.860Z,1.20
2022-08-11T12:29:41.166Z,1.38
2022-08-11T12:32:11.589Z,1.00
2022-08-11T12:34:38.863Z,1.25
2022-08-11T12:37:13.203Z,1.15
2022-08-11T12:40:42.930Z,1.15
2022-08-11T12:43:23.555Z,1.25
2022-08-11T12:46:18.735Z,1.50
2022-08-11T12:49:06.352Z,1.63
2022-08-11T12:52:00.773Z,1.00
2022-08-11T12:54:52.200Z,1.15
2022-08-11T12:58:01.212Z,1.10
2022-08-11T13:00:48.702Z,1.00
2022-08-11T13:03:37.027Z,1.08
2022-08-11T13:06:07.206Z,1.20
2022-08-11T13:08:36.822Z,1.05
2022-08-11T13:11:23.226Z,0.90
2022-08-11T13:13:57.093Z,1.20
2022-08-11T13:16:56.744Z,1.20
2022-08-11T13:19:24.372Z,0.90
2022-08-11T13:21:53.407Z,1.00
2022-08-11T13:24:22.767Z,1.00
2022-08-11T13:26:50.956Z,1.10
2022-08-11T13:29:23.196Z,1.33
2022-08-11T13:31:52.508Z,0.85
2022-08-11T13:34:21.582Z,0.80
2022-08-11T13:36:52.351Z,0.88
2022-08-11T13:39:25.207Z,1.00
2022-08-11T13:41:56.931Z,1.02
2022-08-11T13:44:30.064Z,1.00
2022-08-11T13:47:06.724Z,0.82
2022-08-11T13:49:39.823Z,0.77
2022-08-11T13:52:17.737Z,0.90
2022-08-11T13:54:48.347Z,1.05
2022-08-11T13:58:08.272Z,1.00
2022-08-11T14:00:20.881Z,0.80
2022-08-11T14:02:56.345Z,1.20
2022-08-11T14:05:28.343Z,1.02
2022-08-11T14:10:30.487Z,1.30
2022-08-11T14:13:21.679Z,0.85
2022-08-11T14:15:52.138Z,1.17
2022-08-11T14:18:30.251Z,1.00
2022-08-11T14:21:18.331Z,0.80
2022-08-11T14:23:48.341Z,0.80
2022-08-11T14:26:27.853Z,1.10
2022-08-11T14:28:55.235Z,0.90
2022-08-11T14:31:25.619Z,1.02
2022-08-11T14:33:59.642Z,1.00
2022-08-11T14:36:40.390Z,1.15
2022-08-11T14:39:18.543Z,1.40
2022-08-11T14:42:12.544Z,1.10
2022-08-11T14:45:07.136Z,0.90
2022-08-11T14:47:40.261Z,0.90
2022-08-11T14:50:12.816Z,1.13
2022-08-11T14:52:50.581Z,1.00
2022-08-11T14:55:38.500Z,1.20
2022-08-11T14:58:06.222Z,0.90
2022-08-11T15:00:34.595Z,0.93
2022-08-11T15:03:13.934Z,1.00
2022-08-11T15:05:56.474Z,0.80
2022-08-11T15:08:56.780Z,1.00
2022-08-11T15:11:48.990Z,0.82
2022-08-11T15:14:39.346Z,1.10
2022-08-11T15:17:09.776Z,1.10
2022-08-11T15:20:00.509Z,0.90
2022-08-11T15:22:46.189Z,1.00
2022-08-11T15:25:13.566Z,0.98
2022-08-11T15:28:01.135Z,1.00
2022-08-11T15:30:47.649Z,1.00
2022-08-11T15:33:36.913Z,1.40
2022-08-11T15:36:25.804Z,1.10
2022-08-11T15:39:02.270Z,0.88
2022-08-11T15:42:03.952Z,1.25
2022-08-11T15:45:08.056Z,1.20
2022-08-11T15:47:44.743Z,1.10
2022-08-11T15:50:19.940Z,1.10
2022-08-11T15:52:53.795Z,1.33
2022-08-11T15:55:23.813Z,1.20
2022-08-11T15:58:12.342Z,0.98
2022-08-11T16:01:04.396Z,1.20
2022-08-11T16:04:14.378Z,1.10
2022-08-11T16:07:11.710Z,1.00
2022-08-11T16:09:52.744Z,1.10
2022-08-11T16:12:26.688Z,1.17
2022-08-11T16:15:20.275Z,1.25
2022-08-11T16:17:59.551Z,1.00
2022-08-11T16:20:29.292Z,1.42
2022-08-11T16:23:01.933Z,1.00
2022-08-11T16:27:05.818Z,1.00
2022-08-11T16:28:22.381Z,0.95
2022-08-11T16:30:51.188Z,1.55
2022-08-11T16:33:22.756Z,1.20
2022-08-11T16:36:30.090Z,1.30
2022-08-11T16:38:59.718Z,1.20
2022-08-11T16:41:53.172Z,0.98
2022-08-11T16:44:40.283Z,1.08
2022-08-11T16:47:16.515Z,1.05
2022-08-11T16:49:52.643Z,1.42
2022-08-11T16:52:22.310Z,1.00
2022-08-11T16:54:49.688Z,1.17
2022-08-11T16:57:42.278Z,1.30
2022-08-11T17:00:12.620Z,1.00
2022-08-11T17:03:05.380Z,1.10
2022-08-11T17:05:55.119Z,0.95
2022-08-11T17:08:57.016Z,1.05
2022-08-11T17:11:47.761Z,0.73
2022-08-11T17:14:35.840Z,1.05
2022-08-11T17:17:06.405Z,1.30
2022-08-11T17:20:40.138Z,1.02
2022-08-11T17:22:44.681Z,1.27
2022-08-11T17:25:13.159Z,1.83
2022-08-11T17:27:42.230Z,1.65
2022-08-11T17:30:11.944Z,1.67
2022-08-11T17:33:06.138Z,1.83
2022-08-11T17:35:39.086Z,1.35
2022-08-11T17:38:18.736Z,2.40
2022-08-11T17:41:18.561Z,2.05
2022-08-11T17:44:10.309Z,7.00
2022-08-11T17:46:59.190Z,1.40
2022-08-11T17:49:37.874Z,1.58
2022-08-11T17:52:25.617Z,2.85
2022-08-11T17:55:13.558Z,1.63
2022-08-11T17:58:00.908Z,5.35
2022-08-11T18:00:28.268Z,2.40
2022-08-11T18:03:14.818Z,1.83
2022-08-11T18:05:46.034Z,1.92
2022-08-11T18:08:33.142Z,1.80
2022-08-11T18:12:06.454Z,1.48
2022-08-11T18:14:29.245Z,1.70
2022-08-11T18:17:14.967Z,1.55
2022-08-11T18:20:00.541Z,1.90
2022-08-11T18:22:50.807Z,1.60
2022-08-11T18:25:45.251Z,2.55
2022-08-11T18:28:33.698Z,3.17
2022-08-11T18:31:21.894Z,3.70
2022-08-11T18:34:12.928Z,3.83
2022-08-11T18:37:19.423Z,4.00
2022-08-11T18:40:15.030Z,2.22
2022-08-11T18:43:03.002Z,3.25
2022-08-11T18:45:52.778Z,3.80
2022-08-11T18:48:55.897Z,2.58
2022-08-11T18:51:44.139Z,2.92
2022-08-11T18:54:31.811Z,5.72
2022-08-11T18:57:21.829Z,5.03
2022-08-11T19:00:10.526Z,2.95
2022-08-11T19:02:57.714Z,5.30
2022-08-11T19:06:31.979Z,6.13
2022-08-11T19:08:54.429Z,4.18
2022-08-11T19:11:42.619Z,2.00
2022-08-11T19:14:31.366Z,3.42
2022-08-11T19:17:44.587Z,2.08
2022-08-11T19:20:29.279Z,1.70
2022-08-11T19:23:16.580Z,1.75
2022-08-11T19:26:06.261Z,3.00
2022-08-11T19:28:55.723Z,2.38
2022-08-11T19:31:44.741Z,3.08
2022-08-11T19:34:33.822Z,2.63
2022-08-11T19:37:24.378Z,4.18
2022-08-11T19:40:20.861Z,6.38
2022-08-11T19:43:14.867Z,2.08
2022-08-11T19:46:16.181Z,1.85
2022-08-11T19:49:04.908Z,2.45
2022-08-11T19:51:53.625Z,2.88
2022-08-11T19:54:46.808Z,2.63
2022-08-11T19:57:38.696Z,4.22
2022-08-11T20:00:32.826Z,2.80
2022-08-11T20:03:19.443Z,2.08
2022-08-11T20:06:06.625Z,1.90
2022-08-11T20:08:58.375Z,2.05
2022-08-11T20:11:49.110Z,1.83
2022-08-11T20:14:36.771Z,2.47
2022-08-11T20:17:23.931Z,1.90
2022-08-11T20:20:10.392Z,1.73
2022-08-11T20:22:57.017Z,2.28
2022-08-11T20:25:44.441Z,2.53
2022-08-11T20:28:33.471Z,2.30
2022-08-11T20:31:20.193Z,1.95
2022-08-11T20:34:06.211Z,2.60
2022-08-11T20:36:55.993Z,2.80
2022-08-11T20:39:43.727Z,2.85
2022-08-11T20:42:31.276Z,2.10
2022-08-11T20:45:23.782Z,2.10
2022-08-11T20:48:14.666Z,2.30
2022-08-11T20:51:06.240Z,2.30
2022-08-11T20:54:05.725Z,2.38
2022-08-11T20:56:54.294Z,1.75
2022-08-11T20:59:50.617Z,4.70
2022-08-11T21:02:39.923Z,2.75
2022-08-11T21:06:08.198Z,2.33
2022-08-11T21:08:32.802Z,2.08
2022-08-11T21:11:27.625Z,2.17
2022-08-11T21:14:14.108Z,4.38
2022-08-11T21:17:27.087Z,2.28
2022-08-11T21:20:17.016Z,2.05
2022-08-11T21:23:36.018Z,2.03
2022-08-11T21:26:27.265Z,2.45
2022-08-11T21:29:15.888Z,1.73
2022-08-11T21:32:01.819Z,1.98
2022-08-11T21:34:49.516Z,2.15
2022-08-11T21:37:36.778Z,1.77
2022-08-11T21:40:23.812Z,2.58
2022-08-11T21:43:11.988Z,2.30
2022-08-11T21:45:59.084Z,2.13
2022-08-11T21:48:46.569Z,2.78
2022-08-11T21:51:32.210Z,1.90
2022-08-11T21:54:19.256Z,2.00
2022-08-11T21:57:06.457Z,3.00
2022-08-11T22:00:08.032Z,3.08
2022-08-11T22:02:55.187Z,1.67
2022-08-11T22:05:41.730Z,2.28
2022-08-11T22:08:28.004Z,2.40
2022-08-11T22:11:14.459Z,2.15
2022-08-11T22:14:05.377Z,2.60
2022-08-11T22:16:53.815Z,3.30
2022-08-11T22:19:41.517Z,4.28
2022-08-11T22:22:29.286Z,3.60
2022-08-11T22:25:18.669Z,3.38
2022-08-11T22:28:04.096Z,2.72
2022-08-11T22:30:49.612Z,2.40
2022-08-11T22:33:36.467Z,2.40
2022-08-11T22:36:29.650Z,2.25
2022-08-11T22:39:18.924Z,2.28
2022-08-11T22:42:05.129Z,2.15
2022-08-11T22:44:51.255Z,2.30
2022-08-11T22:47:40.660Z,2.33
2022-08-11T22:50:29.829Z,2.30
2022-08-11T22:53:16.305Z,2.35
2022-08-11T22:56:01.868Z,2.10
2022-08-11T22:58:48.970Z,2.03
2022-08-11T23:01:35.946Z,2.58
2022-08-11T23:04:22.234Z,2.10
2022-08-11T23:07:09.271Z,2.30
2022-08-11T23:09:56.291Z,2.47
2022-08-11T23:12:42.048Z,2.40
2022-08-11T23:15:33.301Z,2.45
2022-08-11T23:18:20.566Z,2.38
2022-08-11T23:21:06.259Z,2.20
2022-08-11T23:23:51.938Z,1.90
2022-08-11T23:26:39.005Z,2.13
2022-08-11T23:29:26.543Z,2.60
2022-08-11T23:32:12.791Z,2.50
2022-08-11T23:35:03.817Z,2.10
2022-08-11T23:37:51.104Z,3.10
2022-08-11T23:40:36.778Z,2.40
2022-08-11T23:43:22.323Z,2.15
2022-08-11T23:46:08.003Z,1.90
2022-08-11T23:48:56.529Z,1.80
2022-08-11T23:51:43.806Z,1.80
2022-08-11T23:54:36.929Z,2.40
2022-08-11T23:57:23.531Z,2.50
